createdAt,value
2023-08-03T00:00:23.956Z,26.20
2023-08-03T00:03:11.597Z,25.90
2023-08-03T00:05:59.221Z,26.20
2023-08-03T00:08:47.150Z,26.10
2023-08-03T00:11:34.770Z,26.10
2023-08-03T00:14:22.376Z,26.30
2023-08-03T00:17:10.035Z,26.10
2023-08-03T00:19:57.671Z,26.40
2023-08-03T00:22:47.853Z,26.40
2023-08-03T00:25:35.620Z,26.20
2023-08-03T00:28:23.567Z,26.20
2023-08-03T00:31:11.362Z,26.20
2023-08-03T00:33:59.250Z,25.80
2023-08-03T00:36:46.761Z,26.00
2023-08-03T00:39:34.574Z,26.20
2023-08-03T00:42:22.350Z,26.20
2023-08-03T00:45:15.043Z,26.50
2023-08-03T00:48:02.855Z,25.90
2023-08-03T00:50:50.491Z,26.10
2023-08-03T00:53:38.444Z,26.20
2023-08-03T00:56:26.017Z,26.20
2023-08-03T00:59:13.580Z,26.60
2023-08-03T01:02:02.145Z,26.60
2023-08-03T01:04:50.480Z,26.70
2023-08-03T01:07:38.354Z,26.70
2023-08-03T01:10:28.658Z,26.50
2023-08-03T01:13:16.398Z,26.80
2023-08-03T01:16:04.307Z,26.50
2023-08-03T01:18:52.406Z,26.60
2023-08-03T01:21:44.228Z,26.60
2023-08-03T01:24:32.013Z,26.50
2023-08-03T01:27:19.815Z,26.00
2023-08-03T01:30:08.154Z,26.10
2023-08-03T01:32:55.949Z,25.10
2023-08-03T01:35:43.951Z,25.30
2023-08-03T01:38:31.456Z,24.90
2023-08-03T01:41:18.961Z,25.00
2023-08-03T01:44:28.900Z,24.60
2023-08-03T01:47:16.499Z,24.10
2023-08-03T01:50:05.379Z,24.60
2023-08-03T01:52:52.883Z,24.70
2023-08-03T01:55:40.531Z,24.20
2023-08-03T01:58:28.024Z,23.80
2023-08-03T02:01:15.496Z,24.10
2023-08-03T02:04:03.213Z,24.30
2023-08-03T02:06:53.077Z,24.40
2023-08-03T02:09:40.657Z,24.50
2023-08-03T02:12:28.100Z,24.40
2023-08-03T02:15:16.637Z,24.60
2023-08-03T02:18:04.167Z,24.50
2023-08-03T02:20:51.676Z,24.60
2023-08-03T02:23:39.404Z,24.70
2023-08-03T02:26:26.918Z,24.70
2023-08-03T02:29:14.436Z,24.70
2023-08-03T02:32:02.058Z,24.70
2023-08-03T02:34:50.036Z,24.90
2023-08-03T02:37:37.520Z,24.80
2023-08-03T02:40:24.998Z,25.00
2023-08-03T02:43:12.560Z,25.10
2023-08-03T02:46:00.119Z,25.10
2023-08-03T02:48:47.677Z,25.20
2023-08-03T02:51:35.224Z,24.70
2023-08-03T02:54:22.798Z,24.80
2023-08-03T02:57:10.294Z,25.00
2023-08-03T02:59:57.836Z,25.00
2023-08-03T03:02:45.646Z,24.90
2023-08-03T03:05:33.495Z,24.90
2023-08-03T03:08:21.093Z,24.70
2023-08-03T03:11:08.596Z,24.70
2023-08-03T03:13:56.094Z,24.70
2023-08-03T03:16:43.566Z,24.50
2023-08-03T03:19:31.140Z,24.60
2023-08-03T03:22:18.641Z,24.70
2023-08-03T03:25:07.144Z,24.70
2023-08-03T03:27:54.626Z,24.70
2023-08-03T03:30:42.096Z,24.60
2023-08-03T03:33:29.607Z,24.80
2023-08-03T03:36:17.168Z,24.90
2023-08-03T03:39:04.744Z,24.80
2023-08-03T03:41:52.359Z,24.90
2023-08-03T03:44:39.863Z,25.00
2023-08-03T03:47:27.732Z,25.00
2023-08-03T03:50:15.540Z,25.00
2023-08-03T03:53:03.332Z,24.80
2023-08-03T03:55:50.917Z,24.70
2023-08-03T03:58:38.771Z,24.70
2023-08-03T04:01:26.516Z,24.50
2023-08-03T04:04:14.461Z,24.80
2023-08-03T04:07:02.306Z,24.80
2023-08-03T04:09:49.765Z,24.70
2023-08-03T04:12:37.768Z,24.80
2023-08-03T04:15:25.733Z,24.60
2023-08-03T04:18:13.727Z,24.70
2023-08-03T04:21:01.275Z,24.30
2023-08-03T04:23:48.879Z,24.60
2023-08-03T04:26:36.730Z,24.00
2023-08-03T04:29:24.412Z,23.80
2023-08-03T04:32:12.447Z,24.20
2023-08-03T04:35:00.342Z,23.70
2023-08-03T04:37:47.877Z,23.60
2023-08-03T04:40:37.276Z,23.90
2023-08-03T04:43:24.820Z,23.50
2023-08-03T04:46:12.457Z,23.90
2023-08-03T04:49:00.184Z,23.90
2023-08-03T04:51:48.016Z,23.70
2023-08-03T04:54:35.569Z,24.20
2023-08-03T04:57:23.338Z,23.90
2023-08-03T05:00:11.618Z,24.00
2023-08-03T05:02:59.517Z,24.00
2023-08-03T05:05:47.016Z,24.10
2023-08-03T05:08:34.573Z,24.30
2023-08-03T05:11:22.113Z,23.90
2023-08-03T05:14:09.606Z,23.60
2023-08-03T05:16:57.084Z,24.10
2023-08-03T05:19:44.693Z,24.30
2023-08-03T05:22:32.199Z,24.30
2023-08-03T05:25:19.728Z,24.20
2023-08-03T05:28:07.340Z,24.40
2023-08-03T05:30:54.870Z,24.30
2023-08-03T05:33:42.793Z,24.30
2023-08-03T05:36:30.250Z,24.00
2023-08-03T05:39:17.876Z,24.00
2023-08-03T05:42:06.285Z,23.90
2023-08-03T05:44:54.344Z,23.90
2023-08-03T05:47:42.159Z,24.10
2023-08-03T05:50:31.032Z,24.30
2023-08-03T05:53:19.843Z,24.40
2023-08-03T05:56:12.816Z,24.50
2023-08-03T05:59:00.714Z,24.50
2023-08-03T06:01:50.890Z,24.30
2023-08-03T06:04:38.720Z,24.40
2023-08-03T06:07:27.284Z,24.50
2023-08-03T06:10:14.930Z,24.50
2023-08-03T06:13:04.317Z,24.50
2023-08-03T06:15:52.204Z,24.60
2023-08-03T06:19:00.465Z,24.50
2023-08-03T06:21:48.278Z,24.30
2023-08-03T06:24:35.826Z,24.50
2023-08-03T06:27:23.428Z,24.50
2023-08-03T06:30:14.584Z,24.50
2023-08-03T06:33:02.116Z,24.50
2023-08-03T06:35:54.061Z,24.60
2023-08-03T06:38:42.876Z,24.80
2023-08-03T06:41:30.880Z,24.90
2023-08-03T06:44:18.482Z,25.10
2023-08-03T06:47:06.400Z,25.20
2023-08-03T06:49:54.205Z,25.10
2023-08-03T06:52:41.962Z,25.20
2023-08-03T06:55:31.518Z,25.30
2023-08-03T06:58:19.527Z,25.30
2023-08-03T07:01:07.891Z,25.40
2023-08-03T07:03:55.544Z,25.50
2023-08-03T07:06:47.910Z,25.50
2023-08-03T07:09:35.644Z,25.60
2023-08-03T07:12:23.226Z,25.60
2023-08-03T07:15:10.995Z,25.70
2023-08-03T07:17:58.584Z,25.80
2023-08-03T07:20:46.160Z,25.80
2023-08-03T07:23:34.674Z,25.70
2023-08-03T07:26:23.191Z,25.80
2023-08-03T07:29:10.888Z,25.60
2023-08-03T07:31:58.469Z,25.70
2023-08-03T07:34:46.129Z,25.80
2023-08-03T07:37:33.798Z,25.90
2023-08-03T07:40:21.726Z,25.50
2023-08-03T07:43:09.281Z,25.40
2023-08-03T07:45:56.900Z,25.60
2023-08-03T07:48:44.517Z,25.40
2023-08-03T07:51:32.013Z,25.30
2023-08-03T07:54:19.511Z,25.40
2023-08-03T07:57:07.773Z,25.40
2023-08-03T07:59:55.388Z,25.60
2023-08-03T08:02:42.956Z,25.70
2023-08-03T08:05:30.540Z,26.10
2023-08-03T08:08:18.063Z,26.30
2023-08-03T08:11:12.594Z,26.50
2023-08-03T08:14:01.131Z,26.60
2023-08-03T08:16:58.849Z,26.70
2023-08-03T08:19:54.247Z,26.80
2023-08-03T08:22:41.789Z,26.50
2023-08-03T08:25:35.441Z,26.50
2023-08-03T08:28:23.567Z,26.40
2023-08-03T08:31:11.656Z,26.40
2023-08-03T08:33:59.290Z,26.50
2023-08-03T08:36:46.917Z,26.00
2023-08-03T08:39:35.273Z,26.20
2023-08-03T08:42:23.000Z,26.00
2023-08-03T08:45:12.565Z,25.90
2023-08-03T09:02:26.837Z,25.40
2023-08-03T09:08:18.226Z,25.40
2023-08-03T09:11:05.835Z,25.20
2023-08-03T09:13:56.187Z,25.40
2023-08-03T09:16:44.334Z,25.50
2023-08-03T09:25:41.965Z,25.80
2023-08-03T09:28:44.685Z,26.00
2023-08-03T09:31:32.396Z,26.10
2023-08-03T09:40:45.422Z,25.70
2023-08-03T09:40:47.526Z,25.50
2023-08-03T09:43:36.213Z,26.10
2023-08-03T09:46:24.338Z,26.30
2023-08-03T09:49:15.055Z,26.80
2023-08-03T09:52:11.762Z,26.50
2023-08-03T09:55:14.477Z,26.60
2023-08-03T09:58:08.112Z,26.30
2023-08-03T10:00:59.981Z,26.30
2023-08-03T10:03:53.628Z,26.40
2023-08-03T10:06:47.820Z,27.00
2023-08-03T10:09:48.361Z,26.90
2023-08-03T10:12:57.216Z,27.00
2023-08-03T10:15:44.935Z,27.10
2023-08-03T10:21:29.725Z,27.80
2023-08-03T10:24:19.648Z,27.60
2023-08-03T10:27:25.070Z,27.10
2023-08-03T10:30:13.738Z,27.00
2023-08-03T10:33:01.250Z,27.60
2023-08-03T10:35:50.027Z,27.70
2023-08-03T10:38:43.847Z,28.00
2023-08-03T10:41:51.377Z,27.90
2023-08-03T10:44:39.020Z,27.60
2023-08-03T10:47:31.902Z,28.50
2023-08-03T10:50:19.728Z,28.70
2023-08-03T10:53:07.271Z,28.20
2023-08-03T10:56:06.600Z,28.80
2023-08-03T10:58:54.315Z,27.90
2023-08-03T11:01:41.879Z,28.60
2023-08-03T11:04:29.482Z,28.30
2023-08-03T11:07:24.053Z,27.90
2023-08-03T11:10:15.953Z,28.00
2023-08-03T11:13:03.585Z,27.60
2023-08-03T11:15:51.330Z,28.10
2023-08-03T11:18:38.847Z,27.70
2023-08-03T11:21:26.344Z,27.90
2023-08-03T11:24:13.899Z,28.30
2023-08-03T11:27:02.660Z,28.50
2023-08-03T11:29:53.484Z,28.40
2023-08-03T11:32:41.561Z,28.60
2023-08-03T11:35:30.140Z,28.40
2023-08-03T11:38:17.957Z,28.20
2023-08-03T11:41:05.715Z,28.80
2023-08-03T11:43:53.701Z,29.10
2023-08-03T11:46:41.993Z,29.60
2023-08-03T11:49:31.830Z,29.60
2023-08-03T11:52:23.713Z,28.60
2023-08-03T11:55:32.473Z,29.10
2023-08-03T11:58:24.929Z,29.50
2023-08-03T12:01:12.703Z,29.20
2023-08-03T12:07:20.019Z,28.60
2023-08-03T12:10:18.125Z,29.00
2023-08-03T12:13:05.893Z,29.00
2023-08-03T12:15:55.046Z,28.90
2023-08-03T12:18:42.547Z,28.70
2023-08-03T12:21:30.351Z,29.00
2023-08-03T12:24:18.015Z,28.90
2023-08-03T12:27:10.635Z,29.10
2023-08-03T12:29:58.681Z,29.50
2023-08-03T12:32:46.219Z,29.70
2023-08-03T12:35:33.816Z,30.10
2023-08-03T12:38:21.337Z,29.40
2023-08-03T12:41:08.823Z,30.20
2023-08-03T12:43:56.376Z,29.70
2023-08-03T12:46:44.123Z,29.30
2023-08-03T12:49:37.671Z,30.10
2023-08-03T12:52:26.654Z,30.50
2023-08-03T12:55:14.556Z,30.30
2023-08-03T12:58:02.102Z,30.10
2023-08-03T13:00:50.153Z,29.00
2023-08-03T13:03:39.273Z,29.60
2023-08-03T13:06:26.843Z,29.20
2023-08-03T13:09:14.373Z,29.50
2023-08-03T13:12:01.834Z,29.40
2023-08-03T13:14:49.338Z,29.40
2023-08-03T13:17:36.976Z,29.10
2023-08-03T13:20:26.201Z,29.50
2023-08-03T13:23:14.111Z,29.40
2023-08-03T13:26:01.777Z,29.30
2023-08-03T13:28:51.938Z,29.70
2023-08-03T13:31:41.693Z,29.60
2023-08-03T13:34:29.196Z,29.40
2023-08-03T13:37:16.762Z,29.80
2023-08-03T13:40:04.898Z,30.10
2023-08-03T13:42:52.510Z,30.10
2023-08-03T13:45:39.986Z,29.70
2023-08-03T13:48:28.708Z,29.60
2023-08-03T13:51:17.431Z,29.00
2023-08-03T13:54:05.313Z,28.60
2023-08-03T14:00:02.245Z,29.40
2023-08-03T14:02:50.525Z,29.10
2023-08-03T14:08:28.779Z,29.30
2023-08-03T14:11:19.935Z,29.40
2023-08-03T14:14:46.556Z,29.80
2023-08-03T14:17:53.700Z,30.10
2023-08-03T14:23:14.908Z,30.60
2023-08-03T14:26:02.547Z,30.20
2023-08-03T14:31:40.517Z,30.00
2023-08-03T14:35:35.698Z,30.20
2023-08-03T14:37:35.464Z,30.20
2023-08-03T14:40:22.915Z,30.20
2023-08-03T14:43:10.515Z,30.40
2023-08-03T14:46:04.069Z,30.40
2023-08-03T14:54:38.924Z,30.10
2023-08-03T14:57:26.584Z,30.40
2023-08-03T15:00:15.634Z,30.40
2023-08-03T15:03:03.433Z,30.40
2023-08-03T15:05:51.185Z,30.50
2023-08-03T15:08:38.687Z,30.50
2023-08-03T15:11:27.851Z,30.40
2023-08-03T15:14:15.538Z,30.40
2023-08-03T15:17:22.600Z,30.30
2023-08-03T15:20:11.976Z,30.30
2023-08-03T15:23:00.655Z,30.10
2023-08-03T15:26:01.896Z,30.20
2023-08-03T15:28:52.788Z,30.10
2023-08-03T15:31:44.985Z,29.90
2023-08-03T15:34:41.746Z,29.70
2023-08-03T15:37:40.680Z,29.60
2023-08-03T15:40:38.308Z,29.50
2023-08-03T15:43:40.352Z,29.50
2023-08-03T15:46:37.593Z,29.50
2023-08-03T15:49:33.363Z,29.40
2023-08-03T15:52:32.498Z,29.40
2023-08-03T15:58:19.312Z,29.30
2023-08-03T16:01:07.868Z,29.30
2023-08-03T16:03:55.473Z,29.30
2023-08-03T16:06:43.198Z,29.30
2023-08-03T16:09:30.886Z,29.40
2023-08-03T16:12:18.442Z,29.40
2023-08-03T16:15:06.884Z,29.40
2023-08-03T16:17:54.547Z,29.40
2023-08-03T16:20:42.088Z,29.30
2023-08-03T16:23:29.881Z,29.40
2023-08-03T16:26:17.432Z,29.40
2023-08-03T16:29:05.191Z,29.40
2023-08-03T16:31:54.065Z,29.30
2023-08-03T16:37:33.744Z,29.00
2023-08-03T16:40:21.500Z,28.90
2023-08-03T16:43:09.069Z,28.60
2023-08-03T16:45:59.192Z,28.50
2023-08-03T16:48:46.803Z,28.10
2023-08-03T16:51:34.331Z,28.30
2023-08-03T16:54:23.197Z,28.40
2023-08-03T16:57:11.140Z,28.10
2023-08-03T16:59:58.720Z,28.40
2023-08-03T17:02:46.320Z,28.00
2023-08-03T17:05:35.202Z,28.10
2023-08-03T17:08:24.940Z,28.20
2023-08-03T17:11:12.457Z,28.10
2023-08-03T17:14:00.047Z,28.40
2023-08-03T17:16:47.881Z,28.10
2023-08-03T17:19:35.851Z,28.20
2023-08-03T17:22:23.565Z,28.10
2023-08-03T17:25:11.246Z,27.40
2023-08-03T17:27:58.828Z,27.60
2023-08-03T17:30:46.722Z,27.70
2023-08-03T17:33:34.413Z,27.70
2023-08-03T17:36:22.006Z,27.30
2023-08-03T17:39:10.437Z,27.30
2023-08-03T17:42:00.453Z,26.80
2023-08-03T17:44:47.986Z,27.10
2023-08-03T17:47:35.516Z,26.30
2023-08-03T17:50:23.025Z,26.40
2023-08-03T17:53:10.625Z,26.60
2023-08-03T17:56:08.189Z,26.30
2023-08-03T17:58:55.700Z,26.60
2023-08-03T18:01:43.303Z,26.80
2023-08-03T18:04:33.387Z,26.60
2023-08-03T18:07:20.987Z,26.50
2023-08-03T18:10:09.015Z,26.50
2023-08-03T18:12:56.635Z,26.40
2023-08-03T18:15:44.577Z,26.40
2023-08-03T18:18:36.747Z,26.50
2023-08-03T18:21:26.104Z,26.40
2023-08-03T18:24:13.789Z,26.30
2023-08-03T18:27:01.284Z,26.20
2023-08-03T18:29:48.828Z,26.20
2023-08-03T18:32:36.408Z,26.30
2023-08-03T18:35:24.485Z,26.30
2023-08-03T18:38:12.078Z,26.10
2023-08-03T18:41:01.598Z,26.00
2023-08-03T18:43:51.729Z,26.00
2023-08-03T18:46:39.813Z,25.90
2023-08-03T18:49:27.765Z,26.00
2023-08-03T18:52:15.628Z,25.90
2023-08-03T18:55:03.343Z,25.80
2023-08-03T18:57:50.851Z,25.90
2023-08-03T19:00:38.647Z,25.70
2023-08-03T19:03:27.657Z,25.80
2023-08-03T19:06:17.981Z,25.60
2023-08-03T19:09:05.447Z,25.60
2023-08-03T19:11:53.035Z,25.60
2023-08-03T19:14:40.543Z,25.60
2023-08-03T19:17:28.097Z,25.60
2023-08-03T19:20:16.219Z,25.50
2023-08-03T19:23:04.140Z,25.40
2023-08-03T19:25:53.359Z,25.50
2023-08-03T19:28:41.093Z,25.50
2023-08-03T19:31:28.818Z,25.50
2023-08-03T19:34:17.090Z,25.40
2023-08-03T19:37:05.052Z,25.40
2023-08-03T19:39:52.706Z,25.40
2023-08-03T19:42:40.200Z,25.30
2023-08-03T19:45:27.903Z,25.30
2023-08-03T19:48:15.795Z,25.30
2023-08-03T19:55:03.423Z,24.90
2023-08-03T19:57:01.375Z,25.30
2023-08-03T20:08:24.640Z,25.10
2023-08-03T20:11:14.020Z,25.10
2023-08-03T20:14:01.528Z,25.10
2023-08-03T20:16:49.288Z,25.10
2023-08-03T20:19:39.881Z,25.10
2023-08-03T20:22:28.253Z,25.10
2023-08-03T20:25:19.423Z,25.10
2023-08-03T20:30:57.716Z,25.10
2023-08-03T20:33:45.481Z,25.00
2023-08-03T20:36:33.607Z,25.10
2023-08-03T20:39:35.427Z,25.00
2023-08-03T20:50:58.221Z,25.20
2023-08-03T20:53:45.930Z,25.10
2023-08-03T20:56:33.591Z,25.10
2023-08-03T20:59:21.426Z,25.20
2023-08-03T21:02:08.926Z,25.20
2023-08-03T21:04:56.633Z,25.20
2023-08-03T21:07:44.307Z,25.20
2023-08-03T21:13:32.892Z,25.10
2023-08-03T21:16:20.562Z,25.00
2023-08-03T21:19:10.732Z,25.10
2023-08-03T21:21:58.615Z,25.10
2023-08-03T21:24:46.259Z,25.10
2023-08-03T21:27:34.109Z,25.10
2023-08-03T21:30:22.043Z,25.00
2023-08-03T21:33:10.094Z,25.10
2023-08-03T21:35:58.661Z,25.00
2023-08-03T21:38:46.260Z,25.10
2023-08-03T21:41:34.231Z,25.10
2023-08-03T21:44:21.945Z,25.00
2023-08-03T21:47:09.829Z,25.00
2023-08-03T21:49:58.600Z,25.00
2023-08-03T21:52:46.860Z,24.90
2023-08-03T21:55:39.334Z,24.90
2023-08-03T21:58:27.146Z,25.00
2023-08-03T22:01:14.937Z,25.00
2023-08-03T22:04:02.739Z,25.10
2023-08-03T22:06:50.544Z,25.10
2023-08-03T22:09:38.304Z,25.10
2023-08-03T22:12:28.027Z,24.70
2023-08-03T22:15:17.327Z,24.70
2023-08-03T22:18:05.015Z,24.60
2023-08-03T22:20:52.568Z,24.50
2023-08-03T22:23:41.331Z,24.50
2023-08-03T22:26:29.144Z,24.60
2023-08-03T22:29:16.982Z,24.80
2023-08-03T22:32:06.300Z,25.00
2023-08-03T22:34:57.951Z,24.80
2023-08-03T22:37:46.495Z,24.80
2023-08-03T22:40:34.133Z,24.80
2023-08-03T22:43:22.788Z,24.90
2023-08-03T22:46:17.538Z,24.80
2023-08-03T22:49:05.284Z,24.60
2023-08-03T22:51:53.423Z,24.60
2023-08-03T22:54:41.165Z,24.60
2023-08-03T22:57:28.737Z,24.70
2023-08-03T23:00:17.072Z,24.70
2023-08-03T23:03:05.138Z,24.60
2023-08-03T23:05:53.797Z,24.60
2023-08-03T23:08:42.333Z,24.50
2023-08-03T23:11:30.178Z,24.60
2023-08-03T23:14:17.879Z,24.50
2023-08-03T23:17:06.019Z,24.50
2023-08-03T23:19:53.794Z,24.60
2023-08-03T23:22:41.409Z,24.70
2023-08-03T23:25:29.048Z,24.50
2023-08-03T23:28:19.626Z,24.70
2023-08-03T23:31:07.712Z,24.50
2023-08-03T23:33:55.412Z,24.50
2023-08-03T23:36:43.074Z,24.60
2023-08-03T23:39:30.714Z,24.40
2023-08-03T23:42:18.394Z,24.30
2023-08-03T23:45:06.697Z,24.10
2023-08-03T23:47:54.243Z,24.00
2023-08-03T23:50:41.958Z,24.00
2023-08-03T23:53:29.472Z,24.00
2023-08-03T23:56:17.040Z,24.20
2023-08-03T23:59:04.541Z,24.00
